createdAt,value
2022-08-16T00:00:39.311Z,20.65
2022-08-16T00:03:13.684Z,20.65
2022-08-16T00:05:48.409Z,20.63
2022-08-16T00:08:11.477Z,20.63
2022-08-16T00:10:41.351Z,20.63
2022-08-16T00:13:10.215Z,20.67
2022-08-16T00:15:51.676Z,20.68
2022-08-16T00:18:17.937Z,20.71
2022-08-16T00:20:48.450Z,20.71
2022-08-16T00:23:18.096Z,20.73
2022-08-16T00:26:35.815Z,20.76
2022-08-16T00:28:17.112Z,20.77
2022-08-16T00:30:44.957Z,20.74
2022-08-16T00:33:12.681Z,20.71
2022-08-16T00:35:40.368Z,20.67
2022-08-16T00:38:40.855Z,20.63
2022-08-16T00:40:43.654Z,20.58
2022-08-16T00:43:43.195Z,20.52
2022-08-16T00:46:32.975Z,20.48
2022-08-16T00:48:51.487Z,20.45
2022-08-16T00:51:23.327Z,20.40
2022-08-16T00:53:53.223Z,20.36
2022-08-16T00:56:58.035Z,20.33
2022-08-16T00:58:56.543Z,20.29
2022-08-16T01:01:27.342Z,20.28
2022-08-16T01:03:56.288Z,20.28
2022-08-16T01:06:39.541Z,20.27
2022-08-16T01:08:56.999Z,20.29
2022-08-16T01:11:27.851Z,20.31
2022-08-16T01:14:20.192Z,20.35
2022-08-16T01:16:48.937Z,20.38
2022-08-16T01:19:37.606Z,20.40
2022-08-16T01:22:50.256Z,20.43
2022-08-16T01:25:09.752Z,20.43
2022-08-16T01:27:45.798Z,20.41
2022-08-16T01:30:20.901Z,20.40
2022-08-16T01:32:56.394Z,20.38
2022-08-16T01:35:52.617Z,20.36
2022-08-16T01:38:29.131Z,20.33
2022-08-16T01:41:19.166Z,20.25
2022-08-16T01:43:53.560Z,20.15
2022-08-16T01:46:39.537Z,20.12
2022-08-16T01:49:10.954Z,20.05
2022-08-16T01:51:44.778Z,19.98
2022-08-16T01:54:15.454Z,19.94
2022-08-16T01:56:46.983Z,19.88
2022-08-16T01:59:19.317Z,19.82
2022-08-16T02:01:59.405Z,19.82
2022-08-16T02:04:49.474Z,19.81
2022-08-16T02:06:57.765Z,19.83
2022-08-16T02:09:28.005Z,19.86
2022-08-16T02:11:59.610Z,19.86
2022-08-16T02:14:30.654Z,19.90
2022-08-16T02:17:02.845Z,19.91
2022-08-16T02:19:59.920Z,19.91
2022-08-16T02:22:34.217Z,19.89
2022-08-16T02:24:41.004Z,19.86
2022-08-16T02:27:10.398Z,19.85
2022-08-16T02:29:41.266Z,19.82
2022-08-16T02:32:50.148Z,19.79
2022-08-16T02:34:45.260Z,19.78
2022-08-16T02:37:13.291Z,19.76
2022-08-16T02:39:42.959Z,19.73
2022-08-16T02:42:13.804Z,19.70
2022-08-16T02:44:43.353Z,19.68
2022-08-16T02:47:11.655Z,19.66
2022-08-16T02:50:52.610Z,19.64
2022-08-16T02:52:24.498Z,19.62
2022-08-16T02:54:42.701Z,19.59
2022-08-16T02:57:11.866Z,19.59
2022-08-16T02:59:41.670Z,19.60
2022-08-16T03:02:10.108Z,19.61
2022-08-16T03:04:50.203Z,19.62
2022-08-16T03:07:10.093Z,19.64
2022-08-16T03:09:40.457Z,19.68
2022-08-16T03:12:10.306Z,19.71
2022-08-16T03:14:40.133Z,19.72
2022-08-16T03:17:10.018Z,19.75
2022-08-16T03:19:59.579Z,19.77
2022-08-16T03:22:08.776Z,19.75
2022-08-16T03:24:37.701Z,19.73
2022-08-16T03:27:05.611Z,19.75
2022-08-16T03:29:35.324Z,19.73
2022-08-16T03:32:04.990Z,19.71
2022-08-16T03:34:33.134Z,19.67
2022-08-16T03:37:01.563Z,19.66
2022-08-16T03:39:30.016Z,19.63
2022-08-16T03:41:59.623Z,19.63
2022-08-16T03:44:44.096Z,19.61
2022-08-16T03:46:58.729Z,19.60
2022-08-16T03:49:37.053Z,19.57
2022-08-16T03:51:58.316Z,19.56
2022-08-16T03:54:28.796Z,19.55
2022-08-16T03:56:58.692Z,19.54
2022-08-16T03:59:30.096Z,19.58
2022-08-16T04:02:01.742Z,19.60
2022-08-16T04:04:33.391Z,19.62
2022-08-16T04:07:07.171Z,19.69
2022-08-16T04:09:38.206Z,19.73
2022-08-16T04:12:53.274Z,19.81
2022-08-16T04:14:46.870Z,19.88
2022-08-16T04:17:14.585Z,19.94
2022-08-16T04:19:46.968Z,19.99
2022-08-16T04:22:17.422Z,20.04
2022-08-16T04:24:54.455Z,20.05
2022-08-16T04:27:16.618Z,20.09
2022-08-16T04:29:46.537Z,20.12
2022-08-16T04:32:15.251Z,20.14
2022-08-16T04:34:43.653Z,20.16
2022-08-16T04:37:13.159Z,20.17
2022-08-16T04:39:46.465Z,20.20
2022-08-16T04:42:12.140Z,20.21
2022-08-16T04:44:54.694Z,20.22
2022-08-16T04:47:21.852Z,20.22
2022-08-16T04:49:46.084Z,20.25
2022-08-16T04:52:33.844Z,20.25
2022-08-16T04:54:40.265Z,20.27
2022-08-16T04:57:09.777Z,20.33
2022-08-16T04:59:39.898Z,20.38
2022-08-16T05:02:41.003Z,20.46
2022-08-16T05:04:39.147Z,20.54
2022-08-16T05:07:12.103Z,20.60
2022-08-16T05:09:39.793Z,20.70
2022-08-16T05:12:11.129Z,20.79
2022-08-16T05:14:45.358Z,20.84
2022-08-16T05:17:09.255Z,20.92
2022-08-16T05:19:39.333Z,21.01
2022-08-16T05:22:18.141Z,21.09
2022-08-16T05:24:41.143Z,21.15
2022-08-16T05:27:12.046Z,21.22
2022-08-16T05:29:59.244Z,21.20
2022-08-16T05:32:31.928Z,21.18
2022-08-16T05:34:41.920Z,21.17
2022-08-16T05:37:11.988Z,21.17
2022-08-16T05:39:40.741Z,21.18
2022-08-16T05:42:09.091Z,21.18
2022-08-16T05:44:38.166Z,21.17
2022-08-16T05:47:09.237Z,21.16
2022-08-16T05:49:40.136Z,21.14
2022-08-16T05:52:13.708Z,21.15
2022-08-16T05:54:47.302Z,21.13
2022-08-16T05:57:16.799Z,21.14
2022-08-16T05:59:46.974Z,21.19
2022-08-16T06:02:16.617Z,21.25
2022-08-16T06:04:45.849Z,21.32
2022-08-16T06:07:26.648Z,21.43
2022-08-16T06:09:48.965Z,21.56
2022-08-16T06:12:27.373Z,21.70
2022-08-16T06:14:49.312Z,21.86
2022-08-16T06:17:21.611Z,21.94
2022-08-16T06:19:49.923Z,22.04
2022-08-16T06:22:19.496Z,22.12
2022-08-16T06:24:54.815Z,22.18
2022-08-16T06:27:20.758Z,22.24
2022-08-16T06:29:49.977Z,22.24
2022-08-16T06:32:27.127Z,22.25
2022-08-16T06:34:55.314Z,22.32
2022-08-16T06:37:20.148Z,22.35
2022-08-16T06:39:50.260Z,22.40
2022-08-16T06:42:49.233Z,22.49
2022-08-16T06:45:04.513Z,22.60
2022-08-16T06:47:53.610Z,22.68
2022-08-16T06:50:07.872Z,22.70
2022-08-16T06:53:00.662Z,22.65
2022-08-16T06:55:15.525Z,22.59
2022-08-16T06:57:45.369Z,22.57
2022-08-16T07:00:24.370Z,22.54
2022-08-16T07:02:51.577Z,22.54
2022-08-16T07:05:17.402Z,22.54
2022-08-16T07:07:50.756Z,22.62
2022-08-16T07:10:20.447Z,22.68
2022-08-16T07:13:04.105Z,22.72
2022-08-16T07:15:22.370Z,22.90
2022-08-16T07:17:53.027Z,23.02
2022-08-16T07:20:34.945Z,23.07
2022-08-16T07:22:58.795Z,23.08
2022-08-16T07:25:26.916Z,23.04
2022-08-16T07:27:55.011Z,23.00
2022-08-16T07:30:38.972Z,22.98
2022-08-16T07:32:55.372Z,23.00
2022-08-16T07:35:25.019Z,23.00
2022-08-16T07:37:52.806Z,22.98
2022-08-16T07:40:57.941Z,22.98
2022-08-16T07:42:58.623Z,22.99
2022-08-16T07:45:26.422Z,22.95
2022-08-16T07:47:56.927Z,22.94
2022-08-16T07:50:57.383Z,22.91
2022-08-16T07:52:57.469Z,22.90
2022-08-16T07:55:27.344Z,22.94
2022-08-16T07:58:00.958Z,23.02
2022-08-16T08:00:26.497Z,23.03
2022-08-16T08:02:55.511Z,23.05
2022-08-16T08:05:37.004Z,23.07
2022-08-16T08:07:57.609Z,23.18
2022-08-16T08:10:29.486Z,23.26
2022-08-16T08:12:58.442Z,23.30
2022-08-16T08:15:28.703Z,23.32
2022-08-16T08:17:56.787Z,23.37
2022-08-16T08:20:28.796Z,23.34
2022-08-16T08:23:00.942Z,23.31
2022-08-16T08:25:54.926Z,23.26
2022-08-16T08:28:03.166Z,23.23
2022-08-16T08:30:51.103Z,23.19
2022-08-16T08:33:03.330Z,23.30
2022-08-16T08:35:36.452Z,23.36
2022-08-16T08:38:08.673Z,23.43
2022-08-16T08:40:38.236Z,23.53
2022-08-16T08:43:12.439Z,23.67
2022-08-16T08:45:53.633Z,23.87
2022-08-16T08:48:08.383Z,24.01
2022-08-16T08:50:38.150Z,24.15
2022-08-16T08:53:07.656Z,24.27
2022-08-16T08:55:36.884Z,24.39
2022-08-16T08:58:04.805Z,24.48
2022-08-16T09:00:51.358Z,24.64
2022-08-16T09:03:07.856Z,24.80
2022-08-16T09:05:38.047Z,24.98
2022-08-16T09:08:10.928Z,25.15
2022-08-16T09:11:02.260Z,25.23
2022-08-16T09:13:28.040Z,25.41
2022-08-16T09:15:57.417Z,25.58
2022-08-16T09:18:35.371Z,25.76
2022-08-16T09:20:59.962Z,25.96
2022-08-16T09:23:30.759Z,26.13
2022-08-16T09:25:59.026Z,26.18
2022-08-16T09:29:14.073Z,26.17
2022-08-16T09:30:59.194Z,26.12
2022-08-16T09:33:26.888Z,26.17
2022-08-16T09:35:56.485Z,26.13
2022-08-16T09:38:32.341Z,25.94
2022-08-16T09:40:56.848Z,25.76
2022-08-16T09:43:58.648Z,25.63
2022-08-16T09:45:55.815Z,25.68
2022-08-16T09:48:37.114Z,25.78
2022-08-16T09:50:53.814Z,25.85
2022-08-16T09:53:23.509Z,26.01
2022-08-16T09:55:56.803Z,26.21
2022-08-16T09:58:39.077Z,26.45
2022-08-16T10:00:56.893Z,26.66
2022-08-16T10:03:24.725Z,26.80
2022-08-16T10:05:52.387Z,26.81
2022-08-16T10:08:26.000Z,26.77
2022-08-16T10:11:09.420Z,26.96
2022-08-16T10:13:39.031Z,27.22
2022-08-16T10:18:56.147Z,27.43
2022-08-16T10:21:08.987Z,27.46
2022-08-16T10:23:36.652Z,27.61
2022-08-16T10:27:16.891Z,27.68
2022-08-16T10:28:39.472Z,27.50
2022-08-16T10:31:11.837Z,27.16
2022-08-16T10:33:40.385Z,26.87
2022-08-16T10:36:09.252Z,26.65
2022-08-16T10:38:42.038Z,26.19
2022-08-16T10:41:11.407Z,25.31
2022-08-16T10:43:42.838Z,24.54
2022-08-16T10:46:39.636Z,23.93
2022-08-16T10:48:47.009Z,23.39
2022-08-16T10:51:15.608Z,23.00
2022-08-16T10:53:44.570Z,22.65
2022-08-16T10:56:51.512Z,22.54
2022-08-16T10:58:43.117Z,22.45
2022-08-16T11:01:43.460Z,22.43
2022-08-16T11:03:45.696Z,22.43
2022-08-16T11:06:13.575Z,22.46
2022-08-16T11:08:45.401Z,22.49
2022-08-16T11:11:19.140Z,22.55
2022-08-16T11:14:11.097Z,22.60
2022-08-16T11:19:03.287Z,22.78
2022-08-16T11:21:28.749Z,22.87
2022-08-16T11:23:58.358Z,22.97
2022-08-16T11:26:23.985Z,23.10
2022-08-16T11:31:17.974Z,23.34
2022-08-16T11:33:53.210Z,23.45
2022-08-16T11:36:28.041Z,23.52
2022-08-16T11:38:51.287Z,23.56
2022-08-16T11:41:14.325Z,23.55
2022-08-16T11:43:42.208Z,23.55
2022-08-16T11:46:43.138Z,23.57
2022-08-16T11:48:46.623Z,23.60
2022-08-16T11:51:14.357Z,23.59
2022-08-16T11:53:42.146Z,23.60
2022-08-16T11:56:09.639Z,23.60
2022-08-16T11:58:39.137Z,23.63
2022-08-16T12:01:07.358Z,23.69
2022-08-16T12:03:37.073Z,23.81
2022-08-16T12:06:10.898Z,23.98
2022-08-16T12:08:43.269Z,24.19
2022-08-16T12:11:13.412Z,24.46
2022-08-16T12:13:42.575Z,24.78
2022-08-16T12:16:11.364Z,25.09
2022-08-16T12:18:40.901Z,25.44
2022-08-16T12:21:09.780Z,25.74
2022-08-16T12:23:38.699Z,26.03
2022-08-16T12:26:10.663Z,26.27
2022-08-16T12:28:36.949Z,26.49
2022-08-16T12:31:06.632Z,26.77
2022-08-16T12:33:42.732Z,26.91
2022-08-16T12:36:04.522Z,26.95
2022-08-16T12:38:38.578Z,26.88
2022-08-16T12:41:03.955Z,26.68
2022-08-16T12:43:33.708Z,26.45
2022-08-16T12:46:02.905Z,26.31
2022-08-16T12:48:52.606Z,26.19
2022-08-16T12:51:24.155Z,26.14
2022-08-16T12:53:55.222Z,26.30
2022-08-16T12:56:27.709Z,26.47
2022-08-16T12:58:57.230Z,26.65
2022-08-16T13:01:31.377Z,26.82
2022-08-16T13:04:11.866Z,26.99
2022-08-16T13:06:33.448Z,27.15
2022-08-16T13:09:03.252Z,27.29
2022-08-16T13:11:41.441Z,27.41
2022-08-16T13:14:09.999Z,27.50
2022-08-16T13:19:08.253Z,27.60
2022-08-16T13:21:37.022Z,27.60
2022-08-16T13:24:04.783Z,27.43
2022-08-16T13:26:33.206Z,27.28
2022-08-16T13:29:00.866Z,27.12
2022-08-16T13:31:29.368Z,26.88
2022-08-16T13:33:58.941Z,26.68
2022-08-16T13:36:48.041Z,26.54
2022-08-16T13:38:57.109Z,26.40
2022-08-16T13:41:26.480Z,26.25
2022-08-16T13:43:57.863Z,26.21
2022-08-16T13:46:26.304Z,26.29
2022-08-16T13:48:54.398Z,26.43
2022-08-16T13:51:25.053Z,26.57
2022-08-16T13:54:03.006Z,26.70
2022-08-16T13:56:36.036Z,26.79
2022-08-16T13:58:57.140Z,26.86
2022-08-16T14:01:24.982Z,26.81
2022-08-16T14:03:54.684Z,26.72
2022-08-16T14:06:23.131Z,26.52
2022-08-16T14:09:06.408Z,26.33
2022-08-16T14:11:22.242Z,26.17
2022-08-16T14:13:50.110Z,26.03
2022-08-16T14:16:24.442Z,25.90
2022-08-16T14:18:49.490Z,25.74
2022-08-16T14:21:18.247Z,25.65
2022-08-16T14:23:46.638Z,25.60
2022-08-16T14:26:15.241Z,25.52
2022-08-16T14:28:43.677Z,25.37
2022-08-16T14:31:11.303Z,24.71
2022-08-16T14:33:40.034Z,24.17
2022-08-16T14:36:08.538Z,23.70
2022-08-16T14:38:39.300Z,23.31
2022-08-16T14:41:10.200Z,23.03
2022-08-16T14:43:35.375Z,22.81
2022-08-16T14:46:04.244Z,22.68
2022-08-16T14:48:34.189Z,22.59
2022-08-16T14:51:02.385Z,22.55
2022-08-16T14:53:30.630Z,22.56
2022-08-16T14:56:00.367Z,22.56
2022-08-16T14:58:34.871Z,22.58
2022-08-16T15:00:59.312Z,22.62
2022-08-16T15:03:28.128Z,22.67
2022-08-16T15:05:57.637Z,22.70
2022-08-16T15:08:36.644Z,22.75
2022-08-16T15:10:54.764Z,22.80
2022-08-16T15:13:22.600Z,22.85
2022-08-16T15:15:58.809Z,22.94
2022-08-16T15:18:23.281Z,22.99
2022-08-16T15:20:53.960Z,23.02
2022-08-16T15:23:23.527Z,23.02
2022-08-16T15:26:02.982Z,23.03
2022-08-16T15:28:30.808Z,23.07
2022-08-16T15:30:59.417Z,23.11
2022-08-16T15:33:26.700Z,23.17
2022-08-16T15:35:55.535Z,23.21
2022-08-16T15:38:57.918Z,23.20
2022-08-16T15:40:57.741Z,23.19
2022-08-16T15:43:33.705Z,23.19
2022-08-16T15:46:13.106Z,23.17
2022-08-16T15:48:42.891Z,23.16
2022-08-16T15:51:12.454Z,23.16
2022-08-16T15:53:42.031Z,23.17
2022-08-16T15:56:10.266Z,23.15
2022-08-16T15:58:39.774Z,23.20
2022-08-16T16:01:07.813Z,23.22
2022-08-16T16:03:36.226Z,23.23
2022-08-16T16:06:04.701Z,23.26
2022-08-16T16:08:32.803Z,23.25
2022-08-16T16:11:05.838Z,23.20
2022-08-16T16:13:35.498Z,23.17
2022-08-16T16:16:06.781Z,23.17
2022-08-16T16:18:36.146Z,23.15
2022-08-16T16:21:09.225Z,23.14
2022-08-16T16:23:55.170Z,23.15
2022-08-16T16:26:16.164Z,23.15
2022-08-16T16:29:08.103Z,23.13
2022-08-16T16:31:19.167Z,23.10
2022-08-16T16:33:51.701Z,23.10
2022-08-16T16:36:26.869Z,23.12
2022-08-16T16:38:52.149Z,23.15
2022-08-16T16:41:24.460Z,23.15
2022-08-16T16:43:56.025Z,23.16
2022-08-16T16:46:42.049Z,23.18
2022-08-16T16:48:57.535Z,23.22
2022-08-16T16:51:28.129Z,23.26
2022-08-16T16:53:56.661Z,23.29
2022-08-16T16:56:32.210Z,23.32
2022-08-16T16:59:06.712Z,23.35
2022-08-16T17:01:56.826Z,23.39
2022-08-16T17:04:19.528Z,23.39
2022-08-16T17:06:43.175Z,23.37
2022-08-16T17:09:13.601Z,23.30
2022-08-16T17:11:44.598Z,23.24
2022-08-16T17:14:27.543Z,23.13
2022-08-16T17:16:47.742Z,23.02
2022-08-16T17:19:17.377Z,22.91
2022-08-16T17:21:43.643Z,22.80
2022-08-16T17:24:18.397Z,22.71
2022-08-16T17:26:41.104Z,22.65
2022-08-16T17:29:11.965Z,22.61
2022-08-16T17:31:40.902Z,22.62
2022-08-16T17:34:30.094Z,22.68
2022-08-16T17:36:45.286Z,22.74
2022-08-16T17:39:11.603Z,22.78
2022-08-16T17:41:41.548Z,22.73
2022-08-16T17:44:09.937Z,22.68
2022-08-16T17:46:51.006Z,22.66
2022-08-16T17:49:07.167Z,22.63
2022-08-16T17:51:36.005Z,22.17
2022-08-16T17:54:03.762Z,21.78
2022-08-16T17:56:32.132Z,21.40
2022-08-16T17:59:00.737Z,21.17
2022-08-16T18:01:29.022Z,21.06
2022-08-16T18:04:07.947Z,20.75
2022-08-16T18:06:26.576Z,20.58
2022-08-16T18:09:01.687Z,20.52
2022-08-16T18:11:25.979Z,20.51
2022-08-16T18:13:55.012Z,20.45
2022-08-16T18:16:23.317Z,20.38
2022-08-16T18:18:50.997Z,20.31
2022-08-16T18:21:37.209Z,20.29
2022-08-16T18:24:05.219Z,20.32
2022-08-16T18:26:33.228Z,20.32
2022-08-16T18:29:00.904Z,20.36
2022-08-16T18:31:28.874Z,20.38
2022-08-16T18:33:56.498Z,20.42
2022-08-16T18:36:25.197Z,20.44
2022-08-16T18:38:54.280Z,20.44
2022-08-16T18:41:24.608Z,20.38
2022-08-16T18:44:22.399Z,20.38
2022-08-16T18:46:22.466Z,20.42
2022-08-16T18:48:50.006Z,20.46
2022-08-16T18:51:22.891Z,20.47
2022-08-16T18:53:47.260Z,20.39
2022-08-16T18:56:14.989Z,20.32
2022-08-16T18:58:42.548Z,20.22
2022-08-16T19:01:10.233Z,20.16
2022-08-16T19:03:38.172Z,20.08
2022-08-16T19:06:11.385Z,20.01
2022-08-16T19:08:43.467Z,19.96
2022-08-16T19:11:18.596Z,19.89
2022-08-16T19:13:46.621Z,19.88
2022-08-16T19:16:15.033Z,19.88
2022-08-16T19:18:42.846Z,19.80
2022-08-16T19:21:14.545Z,19.79
2022-08-16T19:23:43.629Z,19.81
2022-08-16T19:26:25.651Z,19.84
2022-08-16T19:28:59.678Z,19.92
2022-08-16T19:31:28.674Z,19.99
2022-08-16T19:33:57.407Z,20.05
2022-08-16T19:36:35.383Z,20.08
2022-08-16T19:39:09.014Z,20.08
2022-08-16T19:41:41.758Z,20.05
2022-08-16T19:44:09.913Z,19.98
2022-08-16T19:46:40.062Z,19.90
2022-08-16T19:49:07.675Z,19.78
2022-08-16T19:51:35.382Z,19.66
2022-08-16T19:54:04.977Z,19.59
2022-08-16T19:56:32.481Z,19.55
2022-08-16T20:01:30.102Z,19.54
2022-08-16T20:03:57.934Z,19.53
2022-08-16T20:06:32.111Z,19.54
2022-08-16T20:08:55.425Z,19.55
2022-08-16T20:11:24.435Z,19.60
2022-08-16T20:13:52.084Z,19.61
2022-08-16T20:16:19.663Z,19.66
2022-08-16T20:18:47.242Z,19.74
2022-08-16T20:21:14.980Z,19.78
2022-08-16T20:23:42.598Z,19.84
2022-08-16T20:26:10.273Z,19.89
2022-08-16T20:28:50.033Z,19.96
2022-08-16T20:31:11.055Z,20.03
2022-08-16T20:33:38.628Z,20.12
2022-08-16T20:36:06.662Z,20.17
2022-08-16T20:38:34.877Z,20.20
2022-08-16T20:41:02.616Z,20.20
2022-08-16T20:43:30.337Z,20.15
2022-08-16T20:45:57.843Z,20.07
2022-08-16T20:48:25.449Z,19.97
2022-08-16T20:50:54.929Z,19.89
2022-08-16T20:53:23.000Z,19.83
2022-08-16T20:55:50.759Z,19.78
2022-08-16T20:58:18.390Z,19.75
2022-08-16T21:00:46.879Z,19.74
2022-08-16T21:03:14.598Z,19.71
2022-08-16T21:05:44.158Z,19.71
2022-08-16T21:08:50.884Z,19.72
2022-08-16T21:10:42.168Z,19.72
2022-08-16T21:13:11.604Z,19.67
2022-08-16T21:15:39.300Z,19.63
2022-08-16T21:18:07.093Z,19.67
2022-08-16T21:20:34.827Z,19.72
2022-08-16T21:23:07.089Z,19.56
2022-08-16T21:25:37.477Z,19.29
2022-08-16T21:28:38.698Z,19.16
2022-08-16T21:30:39.019Z,19.10
2022-08-16T21:33:11.862Z,19.08
2022-08-16T21:35:42.996Z,19.10
2022-08-16T21:38:28.666Z,19.09
2022-08-16T21:40:40.797Z,19.04
2022-08-16T21:43:19.562Z,19.05
2022-08-16T21:45:48.006Z,19.06
2022-08-16T21:48:17.454Z,19.11
2022-08-16T21:50:46.950Z,19.16
2022-08-16T21:53:19.526Z,19.24
2022-08-16T21:55:51.266Z,19.34
2022-08-16T21:58:19.122Z,19.43
2022-08-16T22:00:47.485Z,19.53
2022-08-16T22:03:16.147Z,19.65
2022-08-16T22:06:12.357Z,19.73
2022-08-16T22:08:18.695Z,19.81
2022-08-16T22:11:07.520Z,19.88
2022-08-16T22:13:23.087Z,19.93
2022-08-16T22:15:51.403Z,19.95
2022-08-16T22:18:20.102Z,19.97
2022-08-16T22:20:49.447Z,19.96
2022-08-16T22:23:25.680Z,19.91
2022-08-16T22:25:55.167Z,19.87
2022-08-16T22:28:24.655Z,19.82
2022-08-16T22:30:52.833Z,19.77
2022-08-16T22:33:24.707Z,19.73
2022-08-16T22:36:00.857Z,19.73
2022-08-16T22:38:54.846Z,19.76
2022-08-16T22:40:58.759Z,19.79
2022-08-16T22:43:27.055Z,19.84
2022-08-16T22:45:54.650Z,19.87
2022-08-16T22:48:23.220Z,19.86
2022-08-16T22:50:51.108Z,19.86
2022-08-16T22:53:19.003Z,19.86
2022-08-16T22:55:46.688Z,19.86
2022-08-16T22:58:15.037Z,19.87
2022-08-16T23:00:43.831Z,19.85
2022-08-16T23:03:16.066Z,19.81
2022-08-16T23:05:56.984Z,19.77
2022-08-16T23:08:38.016Z,19.73
2022-08-16T23:10:58.618Z,19.69
2022-08-16T23:13:26.679Z,19.66
2022-08-16T23:16:00.431Z,19.60
2022-08-16T23:18:31.055Z,19.53
2022-08-16T23:21:01.670Z,19.49
2022-08-16T23:23:30.450Z,19.46
2022-08-16T23:25:58.874Z,19.42
2022-08-16T23:28:30.272Z,19.40
2022-08-16T23:30:58.705Z,19.38
2022-08-16T23:33:28.312Z,19.37
2022-08-16T23:35:59.763Z,19.38
2022-08-16T23:38:37.681Z,19.38
2022-08-16T23:41:05.260Z,19.38
2022-08-16T23:43:36.717Z,19.40
2022-08-16T23:46:07.609Z,19.41
2022-08-16T23:50:02.557Z,19.42
2022-08-16T23:51:12.386Z,19.43
2022-08-16T23:53:43.711Z,19.42
2022-08-16T23:56:16.279Z,19.38
2022-08-16T23:58:48.488Z,19.34
